createdAt,value
2018-12-03T00:02:01.317Z,55.87
2018-12-03T00:04:29.976Z,55.10
2018-12-03T00:06:59.079Z,54.20
2018-12-03T00:09:28.065Z,56.13
2018-12-03T00:11:57.004Z,54.53
2018-12-03T00:14:25.971Z,52.93
2018-12-03T00:16:54.993Z,50.20
2018-12-03T00:19:23.969Z,48.30
2018-12-03T00:21:52.983Z,49.13
2018-12-03T00:24:22.056Z,49.57
2018-12-03T00:26:51.068Z,47.53
2018-12-03T00:29:20.074Z,48.40
2018-12-03T00:31:48.675Z,45.77
2018-12-03T00:34:17.651Z,43.97
2018-12-03T00:36:46.628Z,46.97
2018-12-03T00:39:15.654Z,46.17
2018-12-03T00:41:44.219Z,43.80
2018-12-03T00:44:12.885Z,44.73
2018-12-03T00:46:41.843Z,45.50
2018-12-03T00:49:10.986Z,45.27
2018-12-03T00:51:39.956Z,46.80
2018-12-03T00:54:08.973Z,46.27
2018-12-03T00:56:37.963Z,47.40
2018-12-03T00:59:06.934Z,46.60
2018-12-03T01:01:36.148Z,46.63
2018-12-03T01:04:05.718Z,47.63
2018-12-03T01:06:48.799Z,46.90
2018-12-03T01:09:17.805Z,46.27
2018-12-03T01:11:46.806Z,45.30
2018-12-03T01:14:15.840Z,44.93
2018-12-03T01:16:44.927Z,44.83
2018-12-03T01:19:14.010Z,45.63
2018-12-03T01:21:42.643Z,45.63
2018-12-03T01:24:11.577Z,45.03
2018-12-03T01:26:40.557Z,48.70
2018-12-03T01:29:09.547Z,46.27
2018-12-03T01:31:38.193Z,46.20
2018-12-03T01:34:06.791Z,48.27
2018-12-03T01:36:35.730Z,47.30
2018-12-03T01:39:07.075Z,44.73
2018-12-03T01:41:36.376Z,46.83
2018-12-03T01:44:05.296Z,49.73
2018-12-03T01:46:34.254Z,52.07
2018-12-03T01:49:03.226Z,53.40
2018-12-03T01:51:32.204Z,50.33
2018-12-03T01:54:00.783Z,49.97
2018-12-03T01:56:29.845Z,49.83
2018-12-03T01:58:58.813Z,47.23
2018-12-03T02:01:27.774Z,48.90
2018-12-03T02:03:56.423Z,48.03
2018-12-03T02:06:25.384Z,50.43
2018-12-03T02:08:54.415Z,55.40
2018-12-03T02:11:23.378Z,58.87
2018-12-03T02:13:52.333Z,56.63
2018-12-03T02:16:21.281Z,54.93
2018-12-03T02:18:50.270Z,60.00
2018-12-03T02:21:19.323Z,56.60
2018-12-03T02:23:48.427Z,61.77
2018-12-03T02:26:17.369Z,57.97
2018-12-03T02:28:46.357Z,60.33
2018-12-03T02:31:15.329Z,60.40
2018-12-03T02:33:43.930Z,58.50
2018-12-03T02:36:12.888Z,59.03
2018-12-03T02:38:41.429Z,57.37
2018-12-03T02:41:10.411Z,57.80
2018-12-03T02:43:39.351Z,57.37
2018-12-03T02:46:08.343Z,55.50
2018-12-03T02:48:37.365Z,54.83
2018-12-03T02:51:06.392Z,59.57
2018-12-03T02:53:34.987Z,56.97
2018-12-03T02:56:04.035Z,60.83
2018-12-03T02:58:33.077Z,59.17
2018-12-03T03:01:02.071Z,61.67
2018-12-03T03:03:30.632Z,56.97
2018-12-03T03:05:59.625Z,55.63
2018-12-03T03:08:28.578Z,57.97
2018-12-03T03:10:57.619Z,58.97
2018-12-03T03:13:26.622Z,56.40
2018-12-03T03:15:55.542Z,56.50
2018-12-03T03:18:24.461Z,56.77
2018-12-03T03:20:53.559Z,60.50
2018-12-03T03:23:22.181Z,54.90
2018-12-03T03:25:51.237Z,57.63
2018-12-03T03:28:20.239Z,57.33
2018-12-03T03:30:48.883Z,60.43
2018-12-03T03:33:17.882Z,59.30
2018-12-03T03:35:46.523Z,57.27
2018-12-03T03:38:15.506Z,59.20
2018-12-03T03:40:44.629Z,60.13
2018-12-03T03:43:13.622Z,60.37
2018-12-03T03:45:42.570Z,61.50
2018-12-03T03:48:11.617Z,61.37
2018-12-03T03:50:40.658Z,69.07
2018-12-03T03:53:09.654Z,66.97
2018-12-03T03:55:38.596Z,61.97
2018-12-03T03:58:07.587Z,61.53
2018-12-03T04:00:36.255Z,61.37
2018-12-03T04:03:05.313Z,56.83
2018-12-03T04:05:34.371Z,58.57
2018-12-03T04:08:03.374Z,58.97
2018-12-03T04:10:32.337Z,59.53
2018-12-03T04:13:01.003Z,58.07
2018-12-03T04:15:29.579Z,56.97
2018-12-03T04:17:58.462Z,57.50
2018-12-03T04:20:27.454Z,55.17
2018-12-03T04:22:56.462Z,55.03
2018-12-03T04:25:25.778Z,57.43
2018-12-03T04:27:54.863Z,54.57
2018-12-03T04:30:23.908Z,56.60
2018-12-03T04:32:53.690Z,53.87
2018-12-03T04:35:23.920Z,51.47
2018-12-03T04:37:53.099Z,55.97
2018-12-03T04:40:22.262Z,50.03
2018-12-03T04:42:52.021Z,50.97
2018-12-03T04:45:21.040Z,47.37
2018-12-03T04:47:50.562Z,46.33
2018-12-03T04:50:21.410Z,47.97
2018-12-03T04:52:49.980Z,48.73
2018-12-03T04:55:19.960Z,45.70
2018-12-03T04:57:49.129Z,47.00
2018-12-03T05:00:20.000Z,47.37
2018-12-03T05:02:50.124Z,44.03
2018-12-03T05:05:19.316Z,44.10
2018-12-03T05:07:48.296Z,44.50
2018-12-03T05:10:18.265Z,48.30
2018-12-03T05:12:48.498Z,48.47
2018-12-03T05:15:17.525Z,46.60
2018-12-03T05:17:46.477Z,46.53
2018-12-03T05:20:15.903Z,47.70
2018-12-03T05:22:44.588Z,45.90
2018-12-03T05:25:18.924Z,52.13
2018-12-03T05:27:42.473Z,44.67
2018-12-03T05:30:12.406Z,47.57
2018-12-03T05:32:41.845Z,49.17
2018-12-03T05:35:13.207Z,44.50
2018-12-03T05:37:41.848Z,43.90
2018-12-03T05:40:11.286Z,43.43
2018-12-03T05:42:40.294Z,45.07
2018-12-03T05:45:09.367Z,44.83
2018-12-03T05:47:38.368Z,44.25
2018-12-03T05:50:10.441Z,46.33
2018-12-03T05:52:39.434Z,45.93
2018-12-03T05:55:08.802Z,42.50
2018-12-03T05:57:37.814Z,43.55
2018-12-03T06:00:10.576Z,41.70
2018-12-03T06:02:39.606Z,48.63
2018-12-03T06:05:09.662Z,44.87
2018-12-03T06:07:38.653Z,41.80
2018-12-03T06:10:12.324Z,41.87
2018-12-03T06:12:41.402Z,39.63
2018-12-03T06:15:15.496Z,39.67
2018-12-03T06:17:44.656Z,50.20
2018-12-03T06:20:16.526Z,46.00
2018-12-03T06:22:46.025Z,44.13
2018-12-03T06:25:17.342Z,41.23
2018-12-03T06:27:46.337Z,42.00
2018-12-03T06:30:16.592Z,43.10
2018-12-03T06:32:45.704Z,44.60
2018-12-03T06:35:15.430Z,51.60
2018-12-03T06:37:44.066Z,50.87
2018-12-03T06:40:15.285Z,49.07
2018-12-03T06:42:44.422Z,50.80
2018-12-03T06:45:13.539Z,51.83
2018-12-03T06:47:43.955Z,39.53
2018-12-03T06:50:13.021Z,36.53
2018-12-03T06:52:42.130Z,38.80
2018-12-03T06:55:11.086Z,39.30
2018-12-03T06:57:40.066Z,39.63
2018-12-03T07:00:11.565Z,32.27
2018-12-03T07:02:40.322Z,35.40
2018-12-03T07:05:10.207Z,30.50
2018-12-03T07:07:39.526Z,31.23
2018-12-03T07:10:13.421Z,27.43
2018-12-03T07:12:42.727Z,29.47
2018-12-03T07:15:14.385Z,28.83
2018-12-03T07:17:43.440Z,30.10
2018-12-03T07:20:13.193Z,32.77
2018-12-03T07:22:42.195Z,28.90
2018-12-03T07:25:11.913Z,30.33
2018-12-03T07:27:41.025Z,26.77
2018-12-03T07:30:16.794Z,25.97
2018-12-03T07:32:47.251Z,27.77
2018-12-03T07:35:16.209Z,25.80
2018-12-03T07:37:45.173Z,28.27
2018-12-03T07:40:19.752Z,27.63
2018-12-03T07:42:48.849Z,32.40
2018-12-03T07:45:19.851Z,31.97
2018-12-03T07:47:48.994Z,32.27
2018-12-03T07:50:18.244Z,33.53
2018-12-03T07:52:47.375Z,34.10
2018-12-03T07:55:18.671Z,37.80
2018-12-03T07:57:58.294Z,32.57
2018-12-03T08:00:30.987Z,36.10
2018-12-03T08:02:59.712Z,30.40
2018-12-03T08:05:28.413Z,30.97
2018-12-03T08:07:57.479Z,36.57
2018-12-03T08:10:26.124Z,34.47
2018-12-03T08:12:55.307Z,34.07
2018-12-03T08:15:24.302Z,32.67
2018-12-03T08:17:56.223Z,37.50
2018-12-03T08:20:27.413Z,38.67
2018-12-03T08:22:58.905Z,42.27
2018-12-03T08:25:27.874Z,35.23
2018-12-03T08:27:56.495Z,42.53
2018-12-03T08:30:25.481Z,48.17
2018-12-03T08:32:54.428Z,45.40
2018-12-03T08:35:23.451Z,45.27
2018-12-03T08:37:52.402Z,46.53
2018-12-03T08:40:21.412Z,44.03
2018-12-03T08:42:52.572Z,44.27
2018-12-03T08:45:22.596Z,51.90
2018-12-03T08:47:52.014Z,45.23
2018-12-03T08:50:24.989Z,45.37
2018-12-03T08:52:54.700Z,43.48
2018-12-03T08:55:23.666Z,42.73
2018-12-03T08:57:52.634Z,44.58
2018-12-03T09:00:23.939Z,42.37
2018-12-03T09:02:57.047Z,46.93
2018-12-03T09:05:27.760Z,45.65
2018-12-03T09:07:56.765Z,46.83
2018-12-03T09:10:25.812Z,42.47
2018-12-03T09:12:54.928Z,43.17
2018-12-03T09:15:24.186Z,44.57
2018-12-03T09:17:53.168Z,49.60
2018-12-03T09:20:22.136Z,43.87
2018-12-03T09:22:51.087Z,45.47
2018-12-03T09:25:24.166Z,42.47
2018-12-03T09:27:53.197Z,45.87
2018-12-03T09:30:27.514Z,46.70
2018-12-03T09:32:51.039Z,46.05
2018-12-03T09:35:19.647Z,47.70
2018-12-03T09:37:48.600Z,50.83
2018-12-03T09:40:20.418Z,53.50
2018-12-03T09:42:49.532Z,53.23
2018-12-03T09:45:19.096Z,51.70
2018-12-03T09:47:48.704Z,50.67
2018-12-03T09:50:19.886Z,48.80
2018-12-03T09:52:49.172Z,53.03
2018-12-03T09:55:26.386Z,55.50
2018-12-03T09:57:59.510Z,59.08
2018-12-03T10:00:28.530Z,54.27
2018-12-03T10:02:59.307Z,55.80
2018-12-03T10:05:29.995Z,52.27
2018-12-03T10:07:59.055Z,55.73
2018-12-03T10:10:28.103Z,54.67
2018-12-03T10:12:57.205Z,52.70
2018-12-03T10:15:28.151Z,54.13
2018-12-03T10:17:57.273Z,57.27
2018-12-03T10:20:26.454Z,51.90
2018-12-03T10:22:55.457Z,51.67
2018-12-03T10:25:24.439Z,55.13
2018-12-03T10:28:00.151Z,53.15
2018-12-03T10:30:29.334Z,55.27
2018-12-03T10:32:58.355Z,54.10
2018-12-03T10:35:34.028Z,52.30
2018-12-03T10:38:08.872Z,55.13
2018-12-03T10:40:41.374Z,56.40
2018-12-03T10:43:11.381Z,57.13
2018-12-03T10:45:40.465Z,55.23
2018-12-03T10:48:09.520Z,55.10
2018-12-03T10:50:38.539Z,51.73
2018-12-03T10:53:07.577Z,55.37
2018-12-03T10:55:42.630Z,54.17
2018-12-03T10:58:12.482Z,53.95
2018-12-03T11:00:47.152Z,53.33
2018-12-03T11:03:21.590Z,58.70
2018-12-03T11:05:56.234Z,53.50
2018-12-03T11:08:25.311Z,53.50
2018-12-03T11:10:55.410Z,51.73
2018-12-03T11:13:24.503Z,50.23
2018-12-03T11:15:53.553Z,45.97
2018-12-03T11:18:22.744Z,46.50
2018-12-03T11:20:51.799Z,47.37
2018-12-03T11:23:22.891Z,42.48
2018-12-03T11:25:52.323Z,39.70
2018-12-03T11:28:21.535Z,38.43
2018-12-03T11:30:55.021Z,45.80
2018-12-03T11:33:27.705Z,45.75
2018-12-03T11:35:58.336Z,45.77
2018-12-03T11:39:45.276Z,49.33
2018-12-03T11:42:14.506Z,43.47
2018-12-03T11:44:43.656Z,40.77
2018-12-03T11:47:19.283Z,40.00
2018-12-03T11:49:48.373Z,43.23
2018-12-03T11:52:17.386Z,42.30
2018-12-03T11:54:46.375Z,45.70
2018-12-03T11:57:15.374Z,43.00
2018-12-03T11:59:44.443Z,47.15
2018-12-03T12:02:13.458Z,44.88
2018-12-03T12:04:42.584Z,42.50
2018-12-03T12:07:11.679Z,45.05
2018-12-03T12:09:40.737Z,47.10
2018-12-03T12:12:09.894Z,41.90
2018-12-03T12:14:38.550Z,44.33
2018-12-03T12:17:07.555Z,42.37
2018-12-03T12:19:36.523Z,42.67
2018-12-03T12:22:06.103Z,44.87
2018-12-03T12:24:36.355Z,41.15
2018-12-03T12:27:04.627Z,41.70
2018-12-03T12:29:33.652Z,44.20
2018-12-03T12:32:02.699Z,40.83
2018-12-03T12:34:32.142Z,39.57
2018-12-03T12:37:01.161Z,39.90
2018-12-03T12:39:30.152Z,39.73
2018-12-03T12:41:59.205Z,45.30
2018-12-03T12:44:28.245Z,42.03
2018-12-03T12:46:57.213Z,39.67
2018-12-03T12:49:26.178Z,45.63
2018-12-03T12:51:55.128Z,39.50
2018-12-03T12:54:24.193Z,43.50
2018-12-03T12:56:53.350Z,38.70
2018-12-03T12:59:22.447Z,37.50
2018-12-03T13:01:52.453Z,36.63
2018-12-03T13:04:21.537Z,39.67
2018-12-03T13:06:50.578Z,39.23
2018-12-03T13:09:19.732Z,38.57
2018-12-03T13:11:49.129Z,41.20
2018-12-03T13:14:18.202Z,45.03
2018-12-03T13:16:47.287Z,43.20
2018-12-03T13:19:16.341Z,41.57
2018-12-03T13:21:47.401Z,45.73
2018-12-03T13:24:16.464Z,42.00
2018-12-03T13:26:50.300Z,45.57
2018-12-03T13:29:19.363Z,46.40
2018-12-03T13:31:48.358Z,45.30
2018-12-03T13:34:17.343Z,46.07
2018-12-03T13:36:46.390Z,45.47
2018-12-03T13:39:15.797Z,44.20
2018-12-03T13:41:44.839Z,47.73
2018-12-03T13:44:13.816Z,49.83
2018-12-03T13:46:43.096Z,47.13
2018-12-03T13:49:12.122Z,47.57
2018-12-03T13:51:41.435Z,46.10
2018-12-03T13:54:10.466Z,46.47
2018-12-03T13:56:39.550Z,46.53
2018-12-03T13:59:08.787Z,43.07
2018-12-03T14:01:38.373Z,46.23
2018-12-03T14:04:11.582Z,48.20
2018-12-03T14:06:45.660Z,44.50
2018-12-03T14:10:25.922Z,46.23
2018-12-03T14:13:03.307Z,47.43
2018-12-03T14:17:47.429Z,47.83
2018-12-03T14:20:16.639Z,46.43
2018-12-03T14:22:50.427Z,47.70
2018-12-03T14:25:19.421Z,47.57
2018-12-03T14:27:48.370Z,55.40
2018-12-03T14:30:17.401Z,54.57
2018-12-03T14:32:46.461Z,50.23
2018-12-03T14:35:15.556Z,52.70
2018-12-03T14:37:44.570Z,51.13
2018-12-03T14:40:13.590Z,49.60
2018-12-03T14:42:42.623Z,53.90
2018-12-03T14:45:11.789Z,58.60
2018-12-03T14:47:40.792Z,60.00
2018-12-03T14:50:10.761Z,60.20
2018-12-03T14:52:39.698Z,59.17
2018-12-03T14:55:08.870Z,56.33
2018-12-03T14:57:37.815Z,56.40
2018-12-03T15:00:09.775Z,58.50
2018-12-03T15:02:40.484Z,56.43
2018-12-03T15:05:09.784Z,58.97
2018-12-03T15:07:38.771Z,61.83
2018-12-03T15:10:09.115Z,59.57
2018-12-03T15:12:38.128Z,66.20
2018-12-03T15:15:09.157Z,63.70
2018-12-03T15:17:38.367Z,71.30
2018-12-03T15:20:08.177Z,67.07
2018-12-03T15:22:37.218Z,63.23
2018-12-03T15:25:08.623Z,61.30
2018-12-03T15:27:37.508Z,62.97
2018-12-03T15:30:08.970Z,62.93
2018-12-03T15:32:38.395Z,60.00
2018-12-03T15:35:09.117Z,62.90
2018-12-03T15:37:38.219Z,62.17
2018-12-03T15:40:11.943Z,60.57
2018-12-03T15:42:41.021Z,68.93
2018-12-03T15:45:11.180Z,73.43
2018-12-03T15:47:40.227Z,72.03
2018-12-03T15:50:09.308Z,88.53
2018-12-03T15:52:38.534Z,83.20
2018-12-03T15:55:08.755Z,78.67
2018-12-03T15:57:38.052Z,81.47
2018-12-03T16:00:10.499Z,78.43
2018-12-03T16:02:40.350Z,91.43
2018-12-03T16:05:13.827Z,86.63
2018-12-03T16:07:43.191Z,79.30
2018-12-03T16:10:14.217Z,80.47
2018-12-03T16:12:45.180Z,85.37
2018-12-03T16:15:14.984Z,84.40
2018-12-03T16:17:44.806Z,78.30
2018-12-03T16:20:14.110Z,86.73
2018-12-03T16:22:43.510Z,98.10
2018-12-03T16:25:13.234Z,144.13
2018-12-03T16:27:42.884Z,139.37
2018-12-03T16:30:15.984Z,141.33
2018-12-03T16:32:45.869Z,138.40
2018-12-03T16:35:15.638Z,111.13
2018-12-03T16:37:45.439Z,89.07
2018-12-03T16:40:15.254Z,97.97
2018-12-03T16:42:45.169Z,90.20
2018-12-03T16:45:15.191Z,103.63
2018-12-03T16:47:45.075Z,117.47
2018-12-03T16:50:14.931Z,116.63
2018-12-03T16:52:44.829Z,112.67
2018-12-03T16:55:14.661Z,115.77
2018-12-03T16:57:44.836Z,115.93
2018-12-03T17:00:54.181Z,98.83
2018-12-03T17:03:24.169Z,103.67
2018-12-03T17:06:00.555Z,93.63
2018-12-03T17:08:30.431Z,103.17
2018-12-03T17:11:05.402Z,105.27
2018-12-03T17:13:42.930Z,105.17
2018-12-03T17:19:36.492Z,88.53
2018-12-03T17:22:34.869Z,83.33
2018-12-03T17:25:05.057Z,85.70
2018-12-03T17:27:34.924Z,105.20
2018-12-03T17:30:05.921Z,108.60
2018-12-03T17:32:35.751Z,90.90
2018-12-03T17:35:06.677Z,104.63
2018-12-03T17:37:54.420Z,92.93
2018-12-03T17:40:29.238Z,90.93
2018-12-03T17:42:59.665Z,89.20
2018-12-03T17:45:29.039Z,95.73
2018-12-03T17:47:58.917Z,90.93
2018-12-03T17:50:28.140Z,86.50
2018-12-03T17:52:58.653Z,85.23
2018-12-03T17:55:27.903Z,86.67
2018-12-03T17:57:59.790Z,89.17
2018-12-03T18:00:34.306Z,91.17
2018-12-03T18:03:05.207Z,91.13
2018-12-03T18:05:36.595Z,96.90
2018-12-03T18:08:07.181Z,106.90
2018-12-03T18:10:36.421Z,112.23
2018-12-03T18:13:06.219Z,115.50
2018-12-03T18:15:36.587Z,102.20
2018-12-03T18:18:06.536Z,113.20
2018-12-03T18:20:37.275Z,105.67
2018-12-03T18:23:07.691Z,98.33
2018-12-03T18:25:37.598Z,97.53
2018-12-03T18:28:08.924Z,121.57
2018-12-03T18:30:39.343Z,114.57
2018-12-03T18:33:09.743Z,102.27
2018-12-03T18:35:39.715Z,113.57
2018-12-03T18:38:08.905Z,101.03
2018-12-03T18:40:38.832Z,93.27
2018-12-03T18:43:10.826Z,98.23
2018-12-03T18:45:40.702Z,107.47
2018-12-03T18:48:12.201Z,111.63
2018-12-03T18:50:44.600Z,106.43
2018-12-03T18:53:15.539Z,122.50
2018-12-03T18:55:45.505Z,118.40
2018-12-03T18:58:19.066Z,115.90
2018-12-03T19:00:49.496Z,112.07
2018-12-03T19:03:19.376Z,111.00
2018-12-03T19:05:49.395Z,105.93
2018-12-03T19:08:20.011Z,112.60
2018-12-03T19:10:49.280Z,110.13
2018-12-03T19:13:19.802Z,117.47
2018-12-03T19:15:56.171Z,117.37
2018-12-03T19:18:27.082Z,116.50
2018-12-03T19:20:56.362Z,130.20
2018-12-03T19:23:26.236Z,135.20
2018-12-03T19:25:56.131Z,139.77
2018-12-03T19:28:26.664Z,126.13
2018-12-03T19:30:56.610Z,117.87
2018-12-03T19:33:31.099Z,113.07
2018-12-03T19:36:21.625Z,105.63
2018-12-03T19:38:51.466Z,124.73
2018-12-03T19:41:21.425Z,116.47
2018-12-03T19:43:52.765Z,102.30
2018-12-03T19:46:22.646Z,111.70
2018-12-03T19:48:52.702Z,103.23
2018-12-03T19:51:22.887Z,97.15
2018-12-03T19:53:54.108Z,102.63
2018-12-03T19:56:24.340Z,94.07
2018-12-03T19:58:59.899Z,103.73
2018-12-03T20:01:29.905Z,113.90
2018-12-03T20:03:59.885Z,122.80
2018-12-03T20:06:31.037Z,118.67
2018-12-03T20:09:02.587Z,110.70
2018-12-03T20:11:33.555Z,106.73
2018-12-03T20:14:03.490Z,100.03
2018-12-03T20:16:36.154Z,96.57
2018-12-03T20:19:05.998Z,99.77
2018-12-03T20:21:36.824Z,94.27
2018-12-03T20:24:07.907Z,100.07
2018-12-03T20:26:44.620Z,100.53
2018-12-03T20:29:22.553Z,103.23
2018-12-03T20:32:16.045Z,101.10
2018-12-03T20:35:00.106Z,103.30
2018-12-03T20:37:41.520Z,97.80
2018-12-03T20:40:21.956Z,96.53
2018-12-03T20:42:58.458Z,89.43
2018-12-03T20:45:32.005Z,87.37
2018-12-03T20:48:01.910Z,94.07
2018-12-03T20:51:04.702Z,97.43
2018-12-03T20:53:39.829Z,97.37
2018-12-03T20:56:09.797Z,88.50
2018-12-03T20:58:39.670Z,98.10
2018-12-03T21:01:09.500Z,86.30
2018-12-03T21:03:39.892Z,82.03
2018-12-03T21:06:09.732Z,89.40
2018-12-03T21:08:39.038Z,83.67
2018-12-03T21:11:08.968Z,88.43
2018-12-03T21:13:38.312Z,89.27
2018-12-03T21:16:10.202Z,86.00
2018-12-03T21:18:40.154Z,83.00
2018-12-03T21:21:11.178Z,81.63
2018-12-03T21:23:41.007Z,81.77
2018-12-03T21:26:10.849Z,157.10
2018-12-03T21:28:40.892Z,150.43
2018-12-03T21:31:10.799Z,119.33
2018-12-03T21:33:40.639Z,119.07
2018-12-03T21:36:09.829Z,105.47
2018-12-03T21:38:39.800Z,94.43
2018-12-03T21:41:09.666Z,87.03
2018-12-03T21:43:39.465Z,87.67
2018-12-03T21:46:08.703Z,86.90
2018-12-03T21:48:38.563Z,95.93
2018-12-03T21:51:08.319Z,86.53
2018-12-03T21:53:38.100Z,94.83
2018-12-03T21:56:07.299Z,92.43
2018-12-03T21:58:37.027Z,91.30
2018-12-03T22:01:06.773Z,139.67
2018-12-03T22:03:36.589Z,92.70
2018-12-03T22:06:07.533Z,81.27
2018-12-03T22:08:37.324Z,76.37
2018-12-03T22:11:07.237Z,75.40
2018-12-03T22:13:36.927Z,74.43
2018-12-03T22:16:06.627Z,70.03
2018-12-03T22:18:36.375Z,71.23
2018-12-03T22:21:06.108Z,73.73
2018-12-03T22:23:36.802Z,67.43
2018-12-03T22:26:06.431Z,67.23
2018-12-03T22:28:35.459Z,65.20
2018-12-03T22:31:04.474Z,61.13
2018-12-03T22:33:34.631Z,66.33
2018-12-03T22:36:03.971Z,59.83
2018-12-03T22:38:33.032Z,58.70
2018-12-03T22:41:01.999Z,60.13
2018-12-03T22:43:30.971Z,65.53
2018-12-03T22:45:59.909Z,58.90
2018-12-03T22:48:28.884Z,61.07
2018-12-03T22:50:57.798Z,62.93
2018-12-03T22:53:26.673Z,66.83
2018-12-03T22:55:55.599Z,55.13
2018-12-03T22:58:24.559Z,58.57
2018-12-03T23:01:08.318Z,59.40
2018-12-03T23:03:37.242Z,58.47
2018-12-03T23:06:06.210Z,68.20
2018-12-03T23:08:35.175Z,61.30
2018-12-03T23:11:04.180Z,60.33
2018-12-03T23:13:33.173Z,62.53
2018-12-03T23:16:02.163Z,58.87
2018-12-03T23:18:31.105Z,60.40
2018-12-03T23:21:00.074Z,60.03
2018-12-03T23:23:28.984Z,63.97
2018-12-03T23:25:57.951Z,73.63
2018-12-03T23:28:26.857Z,67.77
2018-12-03T23:30:55.768Z,59.73
2018-12-03T23:33:24.711Z,63.93
2018-12-03T23:35:53.653Z,62.07
2018-12-03T23:38:22.670Z,60.43
2018-12-03T23:40:51.628Z,59.87
2018-12-03T23:43:20.579Z,60.20
2018-12-03T23:45:49.169Z,57.67
2018-12-03T23:48:18.111Z,60.33
2018-12-03T23:50:47.181Z,58.97
2018-12-03T23:53:16.148Z,57.53
2018-12-03T23:55:45.097Z,56.67
2018-12-03T23:58:14.065Z,59.10
